Flight Track Log - Related Links

Times and Time Zones

All times are in EST time to prevent confusion due to time zone crossing. See the N33068 flight status page for this flight to view local times or setup timezone preferences in your user account.

Time Position Orientation Groundspeed Altitude Reporting Facility
EST Latitude Longitude Course Direction KTS MPH feet Rate Location/Type
Thu 01:00:15 PM 26.2528 -80.6419 266° West 141 162 2,500  Level Miami Center
Thu 01:01:15 PM 26.2497 -80.6811 265° West 141 162 2,500  Level Miami Center
Thu 01:02:15 PM 26.2464 -80.7319 266° West 141 162 2,500 -50 Level Miami Center
Thu 01:03:15 PM 26.2431 -80.7711 265° West 147 169 2,400  Descending Miami Center
Thu 01:04:15 PM 26.2397 -80.8219 266° West 147 169 2,500 50 Climbing Miami Center
Thu 01:05:00 PM 26.2094 -80.8152 266° West  Level Estimated
Thu 01:05:15 PM 26.2386 -80.8661 268° West 147 169 2,500  Level Miami Center
Thu 01:06:15 PM 26.2353 -80.9053 265° West 147 169 2,500  Level Miami Center
Thu 01:07:15 PM 26.2319 -80.9514 265° West 147 169 2,500  Level Miami Center
Thu 01:08:15 PM 26.2286 -80.9953 265° West 147 169 2,500  Level Miami Center
Thu 01:09:15 PM 26.2253 -81.0439 266° West 140 161 2,500  Level Miami Center
Thu 01:10:15 PM 26.2217 -81.0878 265° West 140 161 2,500  Level Miami Center
Thu 01:11:15 PM 26.2186 -81.1292 265° West 140 161 2,500  Level Miami Center
Thu 01:12:15 PM 26.2150 -81.1731 265° West 140 161 2,500 50 Level Miami Center
Thu 01:13:15 PM 26.2119 -81.2122 265° West 140 161 2,600  Climbing Miami Center
Thu 01:14:15 PM 26.2064 -81.2561 262° West 140 161 2,500  Descending Miami Center
Thu 01:15:15 PM 26.2028 -81.3022 265° West 140 161 2,600 50 Climbing Miami Center
Thu 01:16:15 PM 26.1975 -81.3436 262° West 140 161 2,600 -50 Level Miami Center
Thu 01:17:15 PM 26.1919 -81.3875 262° West 145 167 2,500  Descending Miami Center
Thu 01:18:15 PM 26.1883 -81.4314 265° West 145 167 2,600  Climbing Miami Center
Thu 01:19:15 PM 26.1828 -81.4750 262° West 145 167 2,500 -50 Descending Miami Center
Thu 01:20:15 PM 26.1772 -81.5189 262° West 145 167 2,500  Level Miami Center
Thu 01:21:15 PM 26.1717 -81.5625 262° West 145 167 2,500  Level Miami Center
Thu 01:22:15 PM 26.1661 -81.6086 262° West 145 167 2,500 -400 Level Miami Center
Thu 01:23:15 PM 26.1564 -81.6544 257° West 145 167 1,700 -800 Descending Miami Center
Thu 01:25:00 PM 26.1500 -81.7243 270° West  Level FlightAware
Thu 01:32:00 PM 26.1500 -81.7667 270° West  Level FlightAware
Thu 01:33:00 PM 26.1524 -81.7756 270° West  Level Estimated
Thu 01:34:00 PM 26.1524 -81.7756 270° West  Level Estimated
Thu 01:35:00 PM 26.1524 -81.7756 270° West  Level Estimated
Thu 01:36:00 PM 26.1524 -81.7756 270° West  Level Estimated

Login

Don't have an account? Register now (free) for customized features, flight alerts, and more!